createdAt,value
2022-10-11T00:01:06.396Z,10.53
2022-10-11T00:03:34.218Z,10.42
2022-10-11T00:06:03.686Z,10.48
2022-10-11T00:08:32.120Z,10.44
2022-10-11T00:11:00.574Z,10.43
2022-10-11T00:13:28.815Z,10.39
2022-10-11T00:15:58.480Z,10.34
2022-10-11T00:18:26.607Z,10.38
2022-10-11T00:21:02.283Z,10.39
2022-10-11T00:23:30.056Z,10.25
2022-10-11T00:25:59.650Z,10.36
2022-10-11T00:28:27.511Z,10.32
2022-10-11T00:30:55.342Z,10.36
2022-10-11T00:33:24.521Z,10.35
2022-10-11T00:35:52.294Z,10.31
2022-10-11T00:38:20.081Z,10.31
2022-10-11T00:40:47.923Z,10.29
2022-10-11T00:43:18.389Z,10.22
2022-10-11T00:46:04.867Z,10.04
2022-10-11T00:48:40.189Z,10.07
2022-10-11T00:51:14.786Z,10.00
2022-10-11T00:53:42.794Z,10.04
2022-10-11T00:56:15.560Z,10.07
2022-10-11T00:58:43.749Z,10.06
2022-10-11T01:01:14.356Z,10.10
2022-10-11T01:03:43.622Z,10.06
2022-10-11T01:06:11.504Z,10.05
2022-10-11T01:08:39.853Z,10.05
2022-10-11T01:11:07.634Z,10.00
2022-10-11T01:13:42.603Z,9.98
2022-10-11T01:16:15.296Z,10.00
2022-10-11T01:18:48.950Z,10.01
2022-10-11T01:21:26.909Z,10.02
2022-10-11T01:24:27.213Z,10.00
2022-10-11T01:27:31.381Z,9.95
2022-10-11T01:30:06.597Z,9.90
2022-10-11T01:32:40.072Z,9.88
2022-10-11T01:35:11.282Z,9.92
2022-10-11T01:37:41.474Z,9.94
2022-10-11T01:40:12.366Z,9.93
2022-10-11T01:42:41.421Z,9.96
2022-10-11T01:45:10.933Z,9.90
2022-10-11T01:47:40.080Z,9.85
2022-10-11T01:50:09.085Z,9.89
2022-10-11T01:52:39.944Z,9.95
2022-10-11T01:55:17.549Z,9.91
2022-10-11T01:58:00.745Z,9.89
2022-10-11T02:00:31.446Z,9.84
2022-10-11T02:03:08.298Z,9.85
2022-10-11T02:05:39.085Z,9.95
2022-10-11T02:08:10.397Z,9.85
2022-10-11T02:10:41.519Z,9.87
2022-10-11T02:13:13.319Z,9.79
2022-10-11T02:15:42.582Z,9.87
2022-10-11T02:18:16.054Z,9.87
2022-10-11T02:20:44.366Z,9.81
2022-10-11T02:23:15.820Z,9.84
2022-10-11T02:25:44.871Z,9.84
2022-10-11T02:28:15.830Z,9.82
2022-10-11T02:30:45.138Z,9.73
2022-10-11T02:33:16.780Z,9.65
2022-10-11T02:35:48.579Z,9.66
2022-10-11T02:38:20.886Z,9.51
2022-10-11T02:40:51.873Z,9.62
2022-10-11T02:43:23.984Z,9.50
2022-10-11T02:45:54.404Z,9.53
2022-10-11T02:48:25.181Z,9.48
2022-10-11T02:50:55.706Z,9.53
2022-10-11T02:53:24.072Z,9.48
2022-10-11T02:55:52.972Z,9.50
2022-10-11T02:58:21.386Z,9.51
2022-10-11T03:00:49.181Z,9.37
2022-10-11T03:03:17.154Z,9.37
2022-10-11T03:05:46.441Z,9.30
2022-10-11T03:08:15.741Z,9.32
2022-10-11T03:10:44.074Z,9.23
2022-10-11T03:13:16.004Z,9.28
2022-10-11T03:15:49.438Z,9.17
2022-10-11T03:18:23.920Z,9.24
2022-10-11T03:20:53.015Z,9.31
2022-10-11T03:23:20.737Z,9.10
2022-10-11T03:25:48.453Z,9.24
2022-10-11T03:28:16.240Z,9.17
2022-10-11T03:30:44.009Z,9.18
2022-10-11T03:33:11.751Z,9.16
2022-10-11T03:35:40.590Z,9.17
2022-10-11T03:38:13.813Z,9.06
2022-10-11T03:40:41.589Z,8.96
2022-10-11T03:43:09.395Z,8.87
2022-10-11T03:45:37.569Z,8.85
2022-10-11T03:48:05.866Z,8.86
2022-10-11T03:50:33.651Z,9.02
2022-10-11T03:53:01.549Z,9.06
2022-10-11T03:55:30.686Z,9.01
2022-10-11T03:57:58.489Z,8.99
2022-10-11T04:00:26.346Z,8.75
2022-10-11T04:02:54.297Z,8.83
2022-10-11T04:05:22.041Z,8.90
2022-10-11T04:07:49.794Z,8.82
2022-10-11T04:10:17.752Z,8.89
2022-10-11T04:12:47.178Z,8.85
2022-10-11T04:15:14.994Z,8.89
2022-10-11T04:17:42.726Z,8.84
2022-10-11T04:20:11.379Z,8.69
2022-10-11T04:22:39.128Z,8.78
2022-10-11T04:25:07.927Z,8.81
2022-10-11T04:27:35.981Z,8.74
2022-10-11T04:30:05.673Z,8.72
2022-10-11T04:32:33.579Z,8.66
2022-10-11T04:35:01.667Z,8.56
2022-10-11T04:37:29.378Z,8.68
2022-10-11T04:39:57.136Z,8.66
2022-10-11T04:42:24.888Z,8.68
2022-10-11T04:44:52.629Z,8.62
2022-10-11T04:47:21.781Z,8.54
2022-10-11T04:49:49.510Z,8.48
2022-10-11T04:52:17.318Z,8.58
2022-10-11T04:54:45.211Z,8.67
2022-10-11T04:57:13.248Z,8.67
2022-10-11T04:59:41.204Z,8.46
2022-10-11T05:02:09.066Z,8.48
2022-10-11T05:04:38.196Z,8.21
2022-10-11T05:07:06.557Z,8.17
2022-10-11T05:09:34.290Z,8.34
2022-10-11T05:12:02.040Z,8.44
2022-10-11T05:14:29.789Z,8.26
2022-10-11T05:16:57.598Z,8.34
2022-10-11T05:19:25.395Z,8.18
2022-10-11T05:21:54.986Z,8.20
2022-10-11T05:24:22.866Z,8.25
2022-10-11T05:26:50.673Z,8.26
2022-10-11T05:29:18.443Z,8.27
2022-10-11T05:31:46.183Z,8.17
2022-10-11T05:34:13.904Z,8.14
2022-10-11T05:36:41.683Z,7.95
2022-10-11T05:39:10.801Z,7.94
2022-10-11T05:41:38.598Z,7.91
2022-10-11T05:44:08.565Z,7.87
2022-10-11T05:46:36.270Z,7.69
2022-10-11T05:49:04.024Z,7.88
2022-10-11T05:51:31.868Z,8.02
2022-10-11T05:54:00.159Z,8.09
2022-10-11T05:56:29.277Z,8.32
2022-10-11T05:59:02.050Z,8.28
2022-10-11T06:01:30.300Z,8.29
2022-10-11T06:03:58.174Z,8.21
2022-10-11T06:06:26.031Z,8.03
2022-10-11T06:08:53.796Z,8.26
2022-10-11T06:11:23.463Z,8.26
2022-10-11T06:13:54.072Z,8.32
2022-10-11T06:16:22.005Z,8.37
2022-10-11T06:18:49.707Z,8.46
2022-10-11T06:21:17.477Z,8.44
2022-10-11T06:23:45.216Z,8.53
2022-10-11T06:26:12.944Z,8.63
2022-10-11T06:28:40.863Z,8.45
2022-10-11T06:31:10.587Z,8.71
2022-10-11T06:33:38.778Z,8.86
2022-10-11T06:36:08.782Z,9.02
2022-10-11T06:38:39.803Z,9.24
2022-10-11T06:41:11.841Z,9.19
2022-10-11T06:43:39.585Z,9.25
2022-10-11T06:46:07.881Z,9.42
2022-10-11T06:48:40.590Z,9.46
2022-10-11T06:51:08.579Z,9.59
2022-10-11T06:53:36.575Z,9.73
2022-10-11T06:56:04.858Z,9.92
2022-10-11T06:58:32.844Z,10.01
2022-10-11T07:01:02.106Z,10.12
2022-10-11T07:03:30.468Z,10.22
2022-10-11T07:06:02.964Z,10.53
2022-10-11T07:08:30.855Z,10.72
2022-10-11T07:11:01.162Z,10.82
2022-10-11T07:13:28.966Z,11.04
2022-10-11T07:15:56.909Z,11.15
2022-10-11T07:18:24.712Z,11.24
2022-10-11T07:20:52.426Z,11.39
2022-10-11T07:23:21.542Z,11.46
2022-10-11T07:25:49.852Z,11.53
2022-10-11T07:28:17.576Z,11.64
2022-10-11T07:30:45.345Z,11.83
2022-10-11T07:33:13.099Z,11.95
2022-10-11T07:35:43.755Z,11.91
2022-10-11T07:38:15.237Z,12.09
2022-10-11T07:40:45.716Z,12.31
2022-10-11T07:43:14.710Z,12.44
2022-10-11T07:45:45.284Z,12.52
2022-10-11T07:48:13.066Z,12.70
2022-10-11T07:50:40.997Z,12.85
2022-10-11T07:53:09.943Z,12.79
2022-10-11T07:55:40.186Z,12.39
2022-10-11T07:58:09.846Z,12.08
2022-10-11T08:00:37.853Z,12.48
2022-10-11T08:03:06.670Z,12.71
2022-10-11T08:05:34.571Z,12.91
2022-10-11T08:08:02.449Z,12.76
2022-10-11T08:10:30.194Z,12.72
2022-10-11T08:13:03.405Z,13.09
2022-10-11T08:15:33.668Z,12.88
2022-10-11T08:18:01.485Z,13.25
2022-10-11T08:20:31.084Z,13.08
2022-10-11T08:22:58.869Z,13.45
2022-10-11T08:25:26.706Z,13.66
2022-10-11T08:27:54.487Z,13.84
2022-10-11T08:30:22.353Z,13.39
2022-10-11T08:32:51.590Z,13.67
2022-10-11T08:35:19.397Z,13.94
2022-10-11T08:37:47.949Z,14.18
2022-10-11T08:40:17.563Z,14.57
2022-10-11T08:42:47.849Z,14.66
2022-10-11T08:45:25.072Z,14.48
2022-10-11T08:48:03.016Z,14.54
2022-10-11T08:50:31.075Z,14.77
2022-10-11T08:53:00.775Z,15.12
2022-10-11T08:55:34.715Z,15.30
2022-10-11T08:58:02.758Z,15.21
2022-10-11T09:00:33.156Z,15.38
2022-10-11T09:03:08.892Z,15.26
2022-10-11T09:05:42.810Z,14.97
2022-10-11T09:08:14.694Z,15.09
2022-10-11T09:10:52.563Z,15.30
2022-10-11T09:13:34.464Z,15.67
2022-10-11T09:16:08.786Z,15.55
2022-10-11T09:18:47.681Z,15.86
2022-10-11T09:21:27.779Z,15.55
2022-10-11T09:24:08.712Z,16.00
2022-10-11T09:26:39.942Z,16.15
2022-10-11T09:29:13.601Z,16.37
2022-10-11T09:31:42.170Z,16.07
2022-10-11T09:34:14.072Z,16.39
2022-10-11T09:36:46.224Z,16.07
2022-10-11T09:39:26.791Z,16.70
2022-10-11T09:41:58.147Z,16.64
2022-10-11T09:44:27.328Z,16.45
2022-10-11T09:46:55.852Z,16.23
2022-10-11T09:49:29.036Z,16.58
2022-10-11T09:51:58.316Z,17.10
2022-10-11T09:54:38.865Z,18.13
2022-10-11T09:57:06.936Z,18.63
2022-10-11T09:59:35.650Z,18.91
2022-10-11T10:02:20.197Z,18.64
2022-10-11T10:05:15.104Z,18.68
2022-10-11T10:08:20.280Z,18.22
2022-10-11T10:10:54.691Z,17.85
2022-10-11T10:13:45.606Z,18.15
2022-10-11T10:16:21.833Z,18.17
2022-10-11T10:18:51.686Z,18.38
2022-10-11T10:21:26.687Z,18.33
2022-10-11T10:23:55.830Z,17.85
2022-10-11T10:26:25.709Z,17.78
2022-10-11T10:28:59.471Z,17.53
2022-10-11T10:31:44.166Z,17.45
2022-10-11T10:34:23.088Z,17.26
2022-10-11T10:36:55.897Z,17.28
2022-10-11T10:39:28.141Z,17.46
2022-10-11T10:41:56.511Z,17.56
2022-10-11T10:44:24.427Z,18.36
2022-10-11T10:47:01.089Z,20.14
2022-10-11T10:49:54.102Z,21.28
2022-10-11T10:52:49.287Z,21.59
2022-10-11T10:55:24.761Z,21.01
2022-10-11T10:58:09.643Z,21.75
2022-10-11T11:00:43.438Z,22.12
2022-10-11T11:03:17.705Z,22.04
2022-10-11T11:05:49.760Z,21.76
2022-10-11T11:08:32.204Z,22.02
2022-10-11T11:11:05.852Z,22.89
2022-10-11T11:13:43.874Z,22.16
2022-10-11T11:16:15.014Z,21.92
2022-10-11T11:18:46.775Z,21.12
2022-10-11T11:21:24.185Z,19.93
2022-10-11T11:24:00.511Z,19.61
2022-10-11T11:26:32.315Z,18.82
2022-10-11T11:29:17.387Z,18.91
2022-10-11T11:31:57.489Z,19.18
2022-10-11T11:34:27.665Z,19.43
2022-10-11T11:36:57.541Z,19.86
2022-10-11T11:39:31.576Z,20.10
2022-10-11T11:42:01.882Z,19.93
2022-10-11T11:44:32.433Z,19.83
2022-10-11T11:47:02.793Z,19.52
2022-10-11T11:49:33.579Z,19.51
2022-10-11T11:52:01.861Z,19.58
2022-10-11T11:54:40.386Z,20.30
2022-10-11T11:57:16.610Z,20.19
2022-10-11T11:59:46.927Z,20.26
2022-10-11T12:02:31.124Z,19.86
2022-10-11T12:04:59.126Z,19.79
2022-10-11T12:07:28.236Z,19.68
2022-10-11T12:10:17.399Z,19.57
2022-10-11T12:12:45.519Z,19.85
2022-10-11T12:15:21.072Z,20.12
2022-10-11T12:18:03.646Z,19.87
2022-10-11T12:20:32.416Z,19.52
2022-10-11T12:23:01.895Z,19.49
2022-10-11T12:25:42.477Z,19.39
2022-10-11T12:28:58.380Z,20.07
2022-10-11T12:31:27.724Z,20.55
2022-10-11T12:34:18.070Z,19.82
2022-10-11T12:36:47.088Z,20.56
2022-10-11T12:39:44.169Z,20.40
2022-10-11T12:42:24.048Z,19.86
2022-10-11T12:45:25.221Z,19.62
2022-10-11T12:47:57.606Z,19.44
2022-10-11T12:50:29.594Z,19.73
2022-10-11T12:53:02.724Z,19.54
2022-10-11T12:55:48.013Z,19.67
2022-10-11T12:58:27.666Z,19.55
2022-10-11T13:01:13.567Z,19.78
2022-10-11T13:03:42.633Z,19.56
2022-10-11T13:06:17.205Z,19.08
2022-10-11T13:08:47.018Z,18.97
2022-10-11T13:11:19.182Z,18.93
2022-10-11T13:13:53.539Z,18.93
2022-10-11T13:16:23.232Z,19.07
2022-10-11T13:18:56.083Z,19.04
2022-10-11T13:21:29.075Z,19.03
2022-10-11T13:23:59.557Z,18.96
2022-10-11T13:26:27.794Z,18.92
2022-10-11T13:28:56.944Z,18.95
2022-10-11T13:31:25.321Z,19.07
2022-10-11T13:33:55.874Z,18.93
2022-10-11T13:36:26.710Z,19.32
2022-10-11T13:38:56.345Z,19.47
2022-10-11T13:41:26.996Z,20.22
2022-10-11T13:46:27.237Z,20.91
2022-10-11T13:48:59.885Z,20.96
2022-10-11T13:51:30.144Z,20.79
2022-10-11T13:53:59.671Z,21.43
2022-10-11T13:56:27.979Z,22.34
2022-10-11T13:58:57.547Z,21.60
2022-10-11T14:01:27.905Z,21.68
2022-10-11T14:03:59.378Z,21.59
2022-10-11T14:06:40.589Z,21.93
2022-10-11T14:09:16.153Z,22.04
2022-10-11T14:11:43.991Z,21.39
2022-10-11T14:14:39.338Z,22.38
2022-10-11T14:17:13.933Z,22.78
2022-10-11T14:19:41.860Z,22.92
2022-10-11T14:24:40.821Z,22.44
2022-10-11T14:27:13.394Z,23.65
2022-10-11T14:30:00.302Z,24.02
2022-10-11T14:32:34.674Z,22.84
2022-10-11T14:35:02.476Z,21.93
2022-10-11T14:37:30.393Z,21.25
2022-10-11T14:39:58.198Z,20.76
2022-10-11T14:42:25.998Z,20.72
2022-10-11T14:44:55.126Z,20.14
2022-10-11T14:47:22.851Z,20.30
2022-10-11T14:49:50.617Z,20.62
2022-10-11T14:52:18.329Z,20.43
2022-10-11T14:54:46.105Z,20.35
2022-10-11T14:57:13.977Z,20.40
2022-10-11T14:59:42.044Z,20.29
2022-10-11T15:02:12.537Z,19.86
2022-10-11T15:04:40.342Z,19.06
2022-10-11T15:07:08.145Z,19.15
2022-10-11T15:09:35.953Z,19.11
2022-10-11T15:12:03.788Z,19.11
2022-10-11T15:14:31.509Z,18.99
2022-10-11T15:16:59.326Z,18.61
2022-10-11T15:19:28.512Z,18.75
2022-10-11T15:21:56.295Z,18.89
2022-10-11T15:24:24.089Z,18.88
2022-10-11T15:26:51.841Z,18.79
2022-10-11T15:29:21.851Z,18.57
2022-10-11T15:31:50.213Z,18.35
2022-10-11T15:34:18.239Z,18.32
2022-10-11T15:36:47.421Z,18.14
2022-10-11T15:39:27.393Z,18.08
2022-10-11T15:41:55.412Z,18.02
2022-10-11T15:44:23.204Z,17.98
2022-10-11T15:46:51.018Z,17.94
2022-10-11T15:49:19.237Z,17.87
2022-10-11T15:51:48.377Z,17.82
2022-10-11T15:54:16.158Z,17.64
2022-10-11T15:56:44.202Z,17.60
2022-10-11T15:59:12.677Z,17.49
2022-10-11T16:01:40.571Z,17.12
2022-10-11T16:04:08.349Z,17.15
2022-10-11T16:06:36.158Z,16.97
2022-10-11T16:09:06.178Z,16.87
2022-10-11T16:11:33.987Z,16.71
2022-10-11T16:14:01.750Z,16.66
2022-10-11T16:16:29.713Z,16.52
2022-10-11T16:18:57.406Z,16.37
2022-10-11T16:21:25.201Z,16.28
2022-10-11T16:23:52.955Z,16.17
2022-10-11T16:26:22.106Z,16.03
2022-10-11T16:28:49.881Z,15.93
2022-10-11T16:31:20.711Z,15.72
2022-10-11T16:33:48.797Z,15.62
2022-10-11T16:36:35.570Z,15.51
2022-10-11T16:39:06.411Z,15.36
2022-10-11T16:41:35.597Z,15.20
2022-10-11T16:44:03.457Z,15.04
2022-10-11T16:46:32.846Z,14.84
2022-10-11T16:49:00.611Z,14.74
2022-10-11T16:51:28.404Z,14.65
2022-10-11T16:53:56.154Z,14.51
2022-10-11T16:56:25.056Z,14.46
2022-10-11T16:58:54.461Z,14.37
2022-10-11T17:01:23.084Z,14.23
2022-10-11T17:03:51.461Z,14.11
2022-10-11T17:06:19.743Z,13.97
2022-10-11T17:08:47.647Z,13.90
2022-10-11T17:11:17.388Z,13.78
2022-10-11T17:13:45.257Z,13.47
2022-10-11T17:16:14.437Z,13.39
2022-10-11T17:18:42.181Z,13.52
2022-10-11T17:21:13.167Z,13.45
2022-10-11T17:23:40.994Z,13.37
2022-10-11T17:26:11.619Z,13.08
2022-10-11T17:28:39.797Z,12.95
2022-10-11T17:31:08.666Z,13.01
2022-10-11T17:33:38.740Z,12.88
2022-10-11T17:36:15.685Z,12.82
2022-10-11T17:38:43.505Z,12.81
2022-10-11T17:41:11.288Z,12.58
2022-10-11T17:43:39.616Z,12.55
2022-10-11T17:46:08.998Z,12.49
2022-10-11T17:48:39.307Z,12.44
2022-10-11T17:51:09.124Z,12.28
2022-10-11T17:53:37.848Z,12.20
2022-10-11T17:56:07.679Z,12.18
2022-10-11T17:58:35.793Z,12.06
2022-10-11T18:01:04.838Z,11.92
2022-10-11T18:03:33.164Z,11.55
2022-10-11T18:06:05.647Z,11.70
2022-10-11T18:08:39.152Z,11.88
2022-10-11T18:11:11.068Z,11.79
2022-10-11T18:13:42.153Z,11.75
2022-10-11T18:16:10.455Z,11.59
2022-10-11T18:18:38.659Z,11.40
2022-10-11T18:21:07.762Z,11.59
2022-10-11T18:23:37.054Z,11.62
2022-10-11T18:26:10.338Z,11.32
2022-10-11T18:28:38.547Z,11.26
2022-10-11T18:31:12.650Z,11.40
2022-10-11T18:33:41.768Z,11.40
2022-10-11T18:36:13.432Z,11.30
2022-10-11T18:38:46.282Z,11.04
2022-10-11T18:41:16.157Z,11.12
2022-10-11T18:43:44.012Z,11.16
2022-10-11T18:46:13.878Z,11.08
2022-10-11T18:48:42.394Z,11.15
2022-10-11T18:51:14.091Z,10.97
2022-10-11T18:53:42.640Z,11.08
2022-10-11T18:56:11.924Z,11.08
2022-10-11T18:58:40.608Z,11.02
2022-10-11T19:01:10.222Z,11.05
2022-10-11T19:03:38.570Z,11.03
2022-10-11T19:06:08.863Z,11.03
2022-10-11T19:08:38.213Z,11.04
2022-10-11T19:11:07.536Z,10.69
2022-10-11T19:13:35.518Z,10.76
2022-10-11T19:16:07.478Z,10.64
2022-10-11T19:18:38.282Z,10.38
2022-10-11T19:21:10.226Z,10.57
2022-10-11T19:23:40.872Z,10.48
2022-10-11T19:26:09.371Z,10.54
2022-10-11T19:28:37.509Z,10.15
2022-10-11T19:31:07.198Z,10.14
2022-10-11T19:33:35.780Z,10.11
2022-10-11T19:36:05.196Z,10.20
2022-10-11T19:38:34.036Z,9.86
2022-10-11T19:41:04.233Z,9.85
2022-10-11T19:43:32.239Z,9.99
2022-10-11T19:46:01.558Z,9.96
2022-10-11T19:48:29.562Z,9.94
2022-10-11T19:51:03.423Z,10.08
2022-10-11T19:53:31.220Z,10.09
2022-10-11T19:56:01.299Z,9.89
2022-10-11T19:58:30.490Z,10.04
2022-10-11T20:01:03.796Z,9.78
2022-10-11T20:03:31.861Z,9.75
2022-10-11T20:06:02.948Z,9.87
2022-10-11T20:08:31.808Z,9.93
2022-10-11T20:11:00.212Z,9.80
2022-10-11T20:13:34.593Z,9.80
2022-10-11T20:16:04.270Z,9.63
2022-10-11T20:18:32.601Z,9.71
2022-10-11T20:21:01.444Z,9.79
2022-10-11T20:23:29.260Z,9.76
2022-10-11T20:26:00.642Z,9.60
2022-10-11T20:28:31.310Z,9.73
2022-10-11T20:30:59.693Z,9.81
2022-10-11T20:33:27.651Z,9.86
2022-10-11T20:35:59.788Z,9.71
2022-10-11T20:38:28.275Z,9.74
2022-10-11T20:40:56.104Z,9.81
2022-10-11T20:43:24.159Z,9.78
2022-10-11T20:46:04.440Z,9.67
2022-10-11T20:48:33.028Z,9.70
2022-10-11T20:51:01.035Z,9.43
2022-10-11T20:53:29.347Z,9.55
2022-10-11T20:55:57.510Z,9.71
2022-10-11T20:58:25.310Z,9.73
2022-10-11T21:00:53.098Z,9.53
2022-10-11T21:03:22.181Z,9.60
2022-10-11T21:05:58.749Z,9.50
2022-10-11T21:08:26.678Z,9.36
2022-10-11T21:10:55.290Z,9.22
2022-10-11T21:13:23.650Z,9.18
2022-10-11T21:15:51.443Z,9.30
2022-10-11T21:18:19.323Z,9.28
2022-10-11T21:20:48.748Z,9.46
2022-10-11T21:23:18.817Z,9.51
2022-10-11T21:25:46.588Z,9.45
2022-10-11T21:28:14.362Z,9.40
2022-10-11T21:30:42.197Z,9.33
2022-10-11T21:33:09.951Z,9.10
2022-10-11T21:35:39.748Z,9.20
2022-10-11T21:38:10.472Z,9.13
2022-10-11T21:40:39.910Z,9.33
2022-10-11T21:43:07.766Z,9.29
2022-10-11T21:45:37.788Z,9.26
2022-10-11T21:48:06.216Z,9.18
2022-10-11T21:50:34.104Z,9.10
2022-10-11T21:53:02.187Z,9.11
2022-10-11T21:55:31.454Z,9.08
2022-10-11T21:57:59.409Z,8.94
2022-10-11T22:00:27.293Z,9.02
2022-10-11T22:02:55.217Z,9.02
2022-10-11T22:05:23.132Z,9.08
2022-10-11T22:07:51.140Z,9.10
2022-10-11T22:10:19.012Z,9.13
2022-10-11T22:12:48.188Z,9.16
2022-10-11T22:15:16.088Z,9.13
2022-10-11T22:17:43.968Z,9.19
2022-10-11T22:20:11.981Z,9.28
2022-10-11T22:22:39.967Z,9.11
2022-10-11T22:25:08.765Z,9.07
2022-10-11T22:27:36.726Z,8.80
2022-10-11T22:30:06.685Z,8.96
2022-10-11T22:32:34.652Z,9.00
2022-10-11T22:35:02.644Z,8.98
2022-10-11T22:37:30.681Z,8.95
2022-10-11T22:39:58.424Z,9.00
2022-10-11T22:42:27.703Z,9.01
2022-10-11T22:44:56.568Z,8.92
2022-10-11T22:47:25.670Z,8.93
2022-10-11T22:49:53.426Z,8.92
2022-10-11T22:52:21.284Z,8.83
2022-10-11T22:54:49.003Z,8.66
2022-10-11T22:57:16.813Z,8.64
2022-10-11T22:59:44.950Z,8.60
2022-10-11T23:02:12.804Z,8.60
2022-10-11T23:04:41.992Z,8.56
2022-10-11T23:07:09.769Z,8.56
2022-10-11T23:09:37.608Z,8.45
2022-10-11T23:12:05.976Z,8.59
2022-10-11T23:14:33.708Z,8.49
2022-10-11T23:17:01.457Z,8.61
2022-10-11T23:19:29.262Z,8.60
2022-10-11T23:21:58.342Z,8.57
2022-10-11T23:24:26.146Z,8.42
2022-10-11T23:26:53.849Z,8.39
2022-10-11T23:29:21.636Z,8.42
2022-10-11T23:31:49.353Z,8.21
2022-10-11T23:34:17.290Z,8.25
2022-10-11T23:36:45.081Z,8.33
2022-10-11T23:39:15.960Z,8.39
2022-10-11T23:41:44.206Z,8.19
2022-10-11T23:44:12.115Z,8.38
2022-10-11T23:46:39.903Z,8.25
2022-10-11T23:49:07.647Z,8.42
2022-10-11T23:51:35.593Z,8.31
2022-10-11T23:54:03.667Z,8.26
2022-10-11T23:56:32.935Z,8.24
2022-10-11T23:59:00.702Z,8.08
